sensor_id;sensor_type;location;lat;lon;timestamp;temperature;humidity
14775;DHT22;7479;47.042;15.160;2022-10-26T07:44:44;9.90;99.90
14775;DHT22;7479;47.042;15.160;2022-10-26T07:49:38;10.00;99.90
14775;DHT22;7479;47.042;15.160;2022-10-26T07:54:32;10.30;99.90
14775;DHT22;7479;47.042;15.160;2022-10-26T07:59:26;10.40;99.90
14775;DHT22;7479;47.042;15.160;2022-10-26T08:04:21;10.60;99.90
14775;DHT22;7479;47.042;15.160;2022-10-26T08:09:15;10.80;99.90
14775;DHT22;7479;47.042;15.160;2022-10-26T08:14:10;10.80;99.90
14775;DHT22;7479;47.042;15.160;2022-10-26T08:19:03;10.90;99.90
14775;DHT22;7479;47.042;15.160;2022-10-26T08:24:03;11.20;99.90
14775;DHT22;7479;47.042;15.160;2022-10-26T08:28:57;11.50;99.90
14775;DHT22;7479;47.042;15.160;2022-10-26T08:33:51;11.70;99.90
14775;DHT22;7479;47.042;15.160;2022-10-26T08:38:46;11.70;99.90
14775;DHT22;7479;47.042;15.160;2022-10-26T08:43:47;11.80;99.90
14775;DHT22;7479;47.042;15.160;2022-10-26T08:48:44;12.20;99.90
14775;DHT22;7479;47.042;15.160;2022-10-26T08:53:42;12.60;99.90
14775;DHT22;7479;47.042;15.160;2022-10-26T08:58:38;12.80;99.90
14775;DHT22;7479;47.042;15.160;2022-10-26T09:03:34;13.10;99.90
14775;DHT22;7479;47.042;15.160;2022-10-26T09:08:34;13.50;99.90
14775;DHT22;7479;47.042;15.160;2022-10-26T09:13:36;13.70;99.90
14775;DHT22;7479;47.042;15.160;2022-10-26T09:18:45;13.80;99.90
14775;DHT22;7479;47.042;15.160;2022-10-26T09:23:53;14.00;99.90
14775;DHT22;7479;47.042;15.160;2022-10-26T09:28:49;14.50;99.90
14775;DHT22;7479;47.042;15.160;2022-10-26T09:33:45;14.90;99.90
14775;DHT22;7479;47.042;15.160;2022-10-26T09:38:42;15.00;99.90
14775;DHT22;7479;47.042;15.160;2022-10-26T09:43:41;15.10;99.90
14775;DHT22;7479;47.042;15.160;2022-10-26T09:48:40;15.40;99.90
14775;DHT22;7479;47.042;15.160;2022-10-26T09:53:37;15.80;99.90
14775;DHT22;7479;47.042;15.160;2022-10-26T09:58:33;16.00;99.90
14775;DHT22;7479;47.042;15.160;2022-10-26T10:03:30;16.10;99.90
14775;DHT22;7479;47.042;15.160;2022-10-26T10:08:25;16.50;99.90
14775;DHT22;7479;47.042;15.160;2022-10-26T10:13:23;16.60;99.90
14775;DHT22;7479;47.042;15.160;2022-10-26T10:18:19;17.10;99.90
14775;DHT22;7479;47.042;15.160;2022-10-26T10:23:27;17.70;99.90
14775;DHT22;7479;47.042;15.160;2022-10-26T10:28:24;18.40;99.90
14775;DHT22;7479;47.042;15.160;2022-10-26T10:33:19;18.30;99.90
14775;DHT22;7479;47.042;15.160;2022-10-26T10:38:16;18.70;99.90
14775;DHT22;7479;47.042;15.160;2022-10-26T10:43:12;19.50;99.90
14775;DHT22;7479;47.042;15.160;2022-10-26T10:48:17;20.00;99.90
14775;DHT22;7479;47.042;15.160;2022-10-26T10:53:14;20.60;99.90
14775;DHT22;7479;47.042;15.160;2022-10-26T10:58:16;20.60;99.90
14775;DHT22;7479;47.042;15.160;2022-10-26T11:03:29;20.80;99.90
14775;DHT22;7479;47.042;15.160;2022-10-26T11:08:28;21.00;99.90
14775;DHT22;7479;47.042;15.160;2022-10-26T11:13:25;20.60;99.90
14775;DHT22;7479;47.042;15.160;2022-10-26T11:18:23;20.10;99.90
14775;DHT22;7479;47.042;15.160;2022-10-26T11:23:24;19.90;99.90
14775;DHT22;7479;47.042;15.160;2022-10-26T11:28:34;19.70;99.90
14775;DHT22;7479;47.042;15.160;2022-10-26T11:33:35;19.70;99.90
14775;DHT22;7479;47.042;15.160;2022-10-26T11:38:35;19.90;99.90
14775;DHT22;7479;47.042;15.160;2022-10-26T11:43:48;20.40;99.90
14775;DHT22;7479;47.042;15.160;2022-10-26T11:48:50;21.20;99.90
14775;DHT22;7479;47.042;15.160;2022-10-26T11:53:48;22.10;99.90
14775;DHT22;7479;47.042;15.160;2022-10-26T11:58:43;22.50;99.90
14775;DHT22;7479;47.042;15.160;2022-10-26T12:03:42;22.60;99.90
14775;DHT22;7479;47.042;15.160;2022-10-26T12:08:40;22.60;99.80
14775;DHT22;7479;47.042;15.160;2022-10-26T12:13:39;22.90;99.70
14775;DHT22;7479;47.042;15.160;2022-10-26T12:18:41;22.80;99.20
14775;DHT22;7479;47.042;15.160;2022-10-26T12:23:56;22.40;99.60
14775;DHT22;7479;47.042;15.160;2022-10-26T12:29:12;21.80;99.90
14775;DHT22;7479;47.042;15.160;2022-10-26T12:34:11;21.40;99.90
14775;DHT22;7479;47.042;15.160;2022-10-26T12:39:29;21.00;99.90
14775;DHT22;7479;47.042;15.160;2022-10-26T12:44:34;20.70;99.90
14775;DHT22;7479;47.042;15.160;2022-10-26T12:55:18;20.30;99.90
14775;DHT22;7479;47.042;15.160;2022-10-26T13:00:14;20.20;99.90
14775;DHT22;7479;47.042;15.160;2022-10-26T13:11:05;19.70;99.90
14775;DHT22;7479;47.042;15.160;2022-10-26T13:16:00;19.50;99.90
14775;DHT22;7479;47.042;15.160;2022-10-26T13:21:05;19.20;99.90
14775;DHT22;7479;47.042;15.160;2022-10-26T13:26:08;18.90;99.90
14775;DHT22;7479;47.042;15.160;2022-10-26T13:31:04;18.90;99.90
14775;DHT22;7479;47.042;15.160;2022-10-26T13:36:14;18.80;99.90
14775;DHT22;7479;47.042;15.160;2022-10-26T13:41:18;18.80;99.90
14775;DHT22;7479;47.042;15.160;2022-10-26T13:46:24;19.50;99.90
14775;DHT22;7479;47.042;15.160;2022-10-26T13:51:21;21.90;99.90
14775;DHT22;7479;47.042;15.160;2022-10-26T13:56:33;25.00;99.90
14775;DHT22;7479;47.042;15.160;2022-10-26T14:01:29;25.30;97.50
14775;DHT22;7479;47.042;15.160;2022-10-26T14:06:27;23.90;99.10
14775;DHT22;7479;47.042;15.160;2022-10-26T14:11:29;25.20;98.50
14775;DHT22;7479;47.042;15.160;2022-10-26T14:16:28;27.00;95.20
14775;DHT22;7479;47.042;15.160;2022-10-26T14:21:22;27.30;93.70
14775;DHT22;7479;47.042;15.160;2022-10-26T14:26:21;27.40;92.70
14775;DHT22;7479;47.042;15.160;2022-10-26T14:31:21;26.50;93.10
14775;DHT22;7479;47.042;15.160;2022-10-26T14:36:18;24.80;94.20
14775;DHT22;7479;47.042;15.160;2022-10-26T14:41:15;23.00;96.70
14775;DHT22;7479;47.042;15.160;2022-10-26T14:46:12;21.80;97.70
14775;DHT22;7479;47.042;15.160;2022-10-26T14:51:09;21.00;99.90
14775;DHT22;7479;47.042;15.160;2022-10-26T14:56:21;20.20;99.90
14775;DHT22;7479;47.042;15.160;2022-10-26T15:01:29;19.80;99.90
14775;DHT22;7479;47.042;15.160;2022-10-26T15:06:48;19.70;99.90
14775;DHT22;7479;47.042;15.160;2022-10-26T15:11:44;19.20;99.90
14775;DHT22;7479;47.042;15.160;2022-10-26T15:16:38;18.90;99.90
14775;DHT22;7479;47.042;15.160;2022-10-26T15:21:34;18.60;99.90
14775;DHT22;7479;47.042;15.160;2022-10-26T15:26:31;18.40;99.90
14775;DHT22;7479;47.042;15.160;2022-10-26T15:31:31;18.10;99.90
14775;DHT22;7479;47.042;15.160;2022-10-26T15:36:29;18.10;99.90
14775;DHT22;7479;47.042;15.160;2022-10-26T15:41:26;17.90;99.90
14775;DHT22;7479;47.042;15.160;2022-10-26T15:46:20;17.70;99.90
14775;DHT22;7479;47.042;15.160;2022-10-26T15:51:18;17.40;99.90
14775;DHT22;7479;47.042;15.160;2022-10-26T15:56:14;17.20;99.90
14775;DHT22;7479;47.042;15.160;2022-10-26T16:01:10;16.90;99.90
14775;DHT22;7479;47.042;15.160;2022-10-26T16:06:15;16.60;99.90
14775;DHT22;7479;47.042;15.160;2022-10-26T16:11:11;16.50;99.90
14775;DHT22;7479;47.042;15.160;2022-10-26T16:16:10;16.30;99.90
14775;DHT22;7479;47.042;15.160;2022-10-26T16:21:05;16.10;99.90
14775;DHT22;7479;47.042;15.160;2022-10-26T16:25:59;15.80;99.90
14775;DHT22;7479;47.042;15.160;2022-10-26T16:30:59;15.70;99.90
14775;DHT22;7479;47.042;15.160;2022-10-26T16:35:55;15.60;99.90
14775;DHT22;7479;47.042;15.160;2022-10-26T16:40:49;15.40;99.90
14775;DHT22;7479;47.042;15.160;2022-10-26T16:45:45;15.30;99.90
14775;DHT22;7479;47.042;15.160;2022-10-26T16:50:40;15.10;99.90
14775;DHT22;7479;47.042;15.160;2022-10-26T16:55:34;15.00;99.90
14775;DHT22;7479;47.042;15.160;2022-10-26T17:00:28;14.90;99.90
14775;DHT22;7479;47.042;15.160;2022-10-26T17:05:32;14.70;99.90
14775;DHT22;7479;47.042;15.160;2022-10-26T17:10:27;14.60;99.90
14775;DHT22;7479;47.042;15.160;2022-10-26T17:15:21;14.40;99.90
14775;DHT22;7479;47.042;15.160;2022-10-26T17:20:20;14.40;99.90
14775;DHT22;7479;47.042;15.160;2022-10-26T17:25:14;14.30;99.90
14775;DHT22;7479;47.042;15.160;2022-10-26T17:30:10;14.10;99.90
14775;DHT22;7479;47.042;15.160;2022-10-26T17:35:07;13.90;99.90
14775;DHT22;7479;47.042;15.160;2022-10-26T17:40:01;13.80;99.90
14775;DHT22;7479;47.042;15.160;2022-10-26T17:44:54;13.70;99.90
14775;DHT22;7479;47.042;15.160;2022-10-26T17:49:51;13.70;99.90
14775;DHT22;7479;47.042;15.160;2022-10-26T17:54:45;13.70;99.90
14775;DHT22;7479;47.042;15.160;2022-10-26T17:59:39;13.60;99.90
14775;DHT22;7479;47.042;15.160;2022-10-26T18:04:38;13.60;99.90
14775;DHT22;7479;47.042;15.160;2022-10-26T18:09:34;13.70;99.90
